Time;durP1;ratioP1;P1;durP2;ratioP2;P2;SDS_P1;SDS_P2;PMS_P1;PMS_P2;Temp;Humidity;BMP_temperature;BMP_pressure;BME280_temperature;BME280_humidity;BME280_pressure;Samples;Min_cycle;Max_cycle;Signal;HPM_P1;HPM_P2
2023/11/14 00:01:39;;;;;;;19.70;17.58;;;;;;;;;;10023141;28;20114;-74
2023/11/14 00:06:31;;;;;;;32.72;25.95;;;;;;;;;;10024308;28;20125;-73
2023/11/14 00:11:24;;;;;;;30.00;26.83;;;;;;;;;;10022595;28;20129;-73
2023/11/14 00:16:16;;;;;;;33.53;27.15;;;;;;;;;;10038650;28;20046;-72
2023/11/14 00:21:09;;;;;;;30.77;24.92;;;;;;;;;;10054238;28;20053;-72
2023/11/14 00:26:01;;;;;;;29.25;24.15;;;;;;;;;;10054446;28;20099;-72
2023/11/14 00:30:53;;;;;;;28.35;22.75;;;;;;;;;;10052892;28;20141;-72
2023/11/14 00:35:45;;;;;;;25.50;20.85;;;;;;;;;;10062847;28;20042;-72
2023/11/14 00:40:39;;;;;;;26.20;22.23;;;;;;;;;;10047710;28;20128;-72
2023/11/14 00:45:31;;;;;;;24.27;19.02;;;;;;;;;;10029708;28;20041;-73
2023/11/14 00:50:23;;;;;;;14.75;12.82;;;;;;;;;;10028526;28;20078;-72
2023/11/14 00:55:15;;;;;;;15.27;13.65;;;;;;;;;;10029732;28;20057;-72
2023/11/14 01:00:08;;;;;;;12.68;9.45;;;;;;;;;;10031608;28;20042;-72
2023/11/14 01:05:00;;;;;;;12.70;10.15;;;;;;;;;;10024779;28;20038;-73
2023/11/14 01:09:51;;;;;;;13.20;11.77;;;;;;;;;;10030671;28;20088;-72
2023/11/14 01:14:43;;;;;;;16.52;12.50;;;;;;;;;;10031112;28;20037;-72
2023/11/14 01:19:41;;;;;;;18.70;15.73;;;;;;;;;;10035498;28;20045;-72
2023/11/14 01:24:34;;;;;;;25.58;17.83;;;;;;;;;;10029681;28;20038;-72
2023/11/14 01:29:25;;;;;;;25.10;21.08;;;;;;;;;;10026493;28;20121;-72
2023/11/14 01:34:18;;;;;;;26.20;20.38;;;;;;;;;;10012736;28;20433;-73
2023/11/14 01:39:10;;;;;;;24.08;19.23;;;;;;;;;;10030033;28;20077;-72
2023/11/14 01:44:02;;;;;;;23.67;19.10;;;;;;;;;;10027234;28;20093;-72
2023/11/14 01:48:56;;;;;;;20.70;16.73;;;;;;;;;;10028381;28;20333;-71
2023/11/14 01:53:49;;;;;;;24.05;18.70;;;;;;;;;;10017077;28;20061;-73
2023/11/14 01:58:41;;;;;;;22.08;18.80;;;;;;;;;;10027803;28;20124;-72
2023/11/14 02:03:33;;;;;;;24.65;17.38;;;;;;;;;;10027164;28;20042;-72
2023/11/14 02:08:25;;;;;;;22.90;18.45;;;;;;;;;;10018439;28;20052;-73
2023/11/14 02:13:17;;;;;;;20.42;16.40;;;;;;;;;;10026943;28;20116;-72
2023/11/14 02:18:09;;;;;;;22.40;18.23;;;;;;;;;;10027155;28;20508;-72
2023/11/14 02:23:08;;;;;;;17.83;13.02;;;;;;;;;;10026176;28;20058;-72
2023/11/14 02:28:00;;;;;;;16.73;14.48;;;;;;;;;;10030183;28;20125;-72
2023/11/14 02:32:52;;;;;;;14.13;12.30;;;;;;;;;;10027205;28;20077;-72
2023/11/14 02:37:45;;;;;;;16.92;12.98;;;;;;;;;;10029041;28;20045;-72
2023/11/14 02:42:36;;;;;;;15.73;13.23;;;;;;;;;;10029237;28;20140;-72
2023/11/14 02:47:28;;;;;;;19.00;13.60;;;;;;;;;;10027644;28;20045;-72
2023/11/14 02:52:20;;;;;;;19.55;14.05;;;;;;;;;;10017221;28;20053;-72
2023/11/14 02:57:12;;;;;;;15.18;13.55;;;;;;;;;;10027258;28;20464;-72
2023/11/14 03:02:04;;;;;;;23.83;16.00;;;;;;;;;;10026964;28;20033;-72
2023/11/14 03:06:56;;;;;;;15.40;13.18;;;;;;;;;;10027678;28;20136;-72
2023/11/14 03:11:48;;;;;;;18.52;13.68;;;;;;;;;;10027290;28;20108;-72
2023/11/14 03:16:40;;;;;;;16.52;12.57;;;;;;;;;;10025015;28;20046;-72
2023/11/14 03:21:33;;;;;;;17.60;15.20;;;;;;;;;;10028394;28;20356;-71
2023/11/14 03:26:31;;;;;;;17.15;13.27;;;;;;;;;;10026528;28;20412;-73
2023/11/14 03:31:23;;;;;;;21.20;11.60;;;;;;;;;;10028755;28;20088;-72
2023/11/14 03:36:15;;;;;;;14.60;12.18;;;;;;;;;;10026552;28;20103;-72
2023/11/14 03:41:07;;;;;;;17.75;14.00;;;;;;;;;;10027211;28;20125;-72
2023/11/14 03:46:00;;;;;;;15.75;12.10;;;;;;;;;;10025845;28;20448;-72
2023/11/14 03:50:52;;;;;;;18.23;14.38;;;;;;;;;;10025970;28;20057;-72
2023/11/14 03:55:44;;;;;;;17.48;15.40;;;;;;;;;;10026389;28;20457;-72
2023/11/14 04:00:36;;;;;;;17.90;14.75;;;;;;;;;;10026649;28;20092;-72
2023/11/14 04:05:28;;;;;;;18.33;13.25;;;;;;;;;;10025566;28;20529;-72
2023/11/14 04:10:19;;;;;;;15.65;14.00;;;;;;;;;;10037050;28;20423;-72
2023/11/14 04:15:11;;;;;;;16.63;14.27;;;;;;;;;;10061749;28;20037;-72
2023/11/14 04:20:05;;;;;;;43.90;29.80;;;;;;;;;;10065059;28;20123;-72
2023/11/14 04:24:58;;;;;;;21.77;18.20;;;;;;;;;;10061202;28;20072;-72
2023/11/14 04:29:50;;;;;;;57.88;47.60;;;;;;;;;;10065338;28;20057;-72
2023/11/14 04:34:45;;;;;;;24.63;20.45;;;;;;;;;;10058782;28;20041;-72
2023/11/14 04:39:37;;;;;;;21.00;17.08;;;;;;;;;;10070431;28;20116;-72
2023/11/14 04:44:29;;;;;;;63.45;56.03;;;;;;;;;;10051654;28;20457;-72
2023/11/14 04:49:21;;;;;;;10.05;9.02;;;;;;;;;;10059232;28;20049;-72
2023/11/14 04:54:13;;;;;;;15.13;11.35;;;;;;;;;;10036120;28;20088;-72
2023/11/14 04:59:05;;;;;;;12.80;9.27;;;;;;;;;;10034442;28;20124;-72
2023/11/14 05:03:57;;;;;;;19.58;15.30;;;;;;;;;;10032237;28;20056;-72
2023/11/14 05:08:49;;;;;;;23.88;19.80;;;;;;;;;;10031938;28;20085;-72
2023/11/14 05:13:41;;;;;;;26.90;20.40;;;;;;;;;;10030652;28;20056;-72
2023/11/14 05:18:33;;;;;;;32.53;24.38;;;;;;;;;;10031592;28;20465;-72
2023/11/14 05:23:25;;;;;;;40.45;32.88;;;;;;;;;;10031848;28;20045;-72
2023/11/14 05:28:16;;;;;;;41.40;30.25;;;;;;;;;;10031308;28;20119;-72
2023/11/14 05:33:08;;;;;;;36.72;29.15;;;;;;;;;;10031710;28;20069;-72
2023/11/14 05:38:00;;;;;;;42.63;31.30;;;;;;;;;;10030435;28;20751;-72
2023/11/14 05:42:52;;;;;;;39.25;31.95;;;;;;;;;;10030516;28;20677;-73
2023/11/14 05:47:44;;;;;;;37.38;28.45;;;;;;;;;;10029593;28;20345;-72
2023/11/14 05:52:35;;;;;;;39.38;28.75;;;;;;;;;;10030600;28;20054;-72
2023/11/14 05:57:27;;;;;;;32.05;27.70;;;;;;;;;;10029048;28;20533;-72
2023/11/14 06:02:19;;;;;;;36.22;27.50;;;;;;;;;;10031796;28;20052;-72
2023/11/14 06:07:11;;;;;;;38.35;26.95;;;;;;;;;;10030364;28;20053;-73
2023/11/14 06:12:04;;;;;;;35.28;28.38;;;;;;;;;;10028628;28;20111;-72
2023/11/14 06:16:55;;;;;;;32.95;25.65;;;;;;;;;;10027655;28;20116;-72
2023/11/14 06:21:48;;;;;;;30.80;26.13;;;;;;;;;;10039789;28;20042;-72
2023/11/14 06:26:39;;;;;;;29.17;20.73;;;;;;;;;;10044612;28;20073;-73
2023/11/14 06:31:31;;;;;;;24.63;20.10;;;;;;;;;;10053165;28;20054;-72
2023/11/14 06:36:23;;;;;;;32.78;22.92;;;;;;;;;;10042454;28;20048;-70
2023/11/14 06:41:15;;;;;;;22.98;19.17;;;;;;;;;;10055097;28;20511;-72
2023/11/14 06:46:07;;;;;;;30.77;20.33;;;;;;;;;;10065114;28;20056;-72
2023/11/14 06:50:59;;;;;;;23.80;17.83;;;;;;;;;;10060212;28;20169;-73
2023/11/14 06:55:50;;;;;;;25.42;19.88;;;;;;;;;;10054864;28;20042;-73
2023/11/14 07:00:42;;;;;;;24.02;18.33;;;;;;;;;;10038305;28;20077;-72
2023/11/14 07:05:35;;;;;;;24.92;19.85;;;;;;;;;;10067427;28;20049;-73
2023/11/14 07:10:30;;;;;;;26.83;20.80;;;;;;;;;;10061684;28;20045;-72
2023/11/14 07:15:23;;;;;;;23.63;19.45;;;;;;;;;;10065944;28;20425;-72
2023/11/14 07:20:20;;;;;;;24.20;19.42;;;;;;;;;;10063386;28;20041;-72
2023/11/14 07:25:13;;;;;;;29.73;23.33;;;;;;;;;;10056349;28;20045;-70
2023/11/14 07:30:05;;;;;;;36.80;27.35;;;;;;;;;;10047545;28;20180;-69
2023/11/14 07:34:58;;;;;;;40.58;30.42;;;;;;;;;;10030782;28;20064;-71
2023/11/14 07:39:49;;;;;;;45.30;37.75;;;;;;;;;;10047107;28;20443;-73
2023/11/14 07:44:44;;;;;;;45.17;37.45;;;;;;;;;;10056308;28;20381;-72
2023/11/14 07:49:38;;;;;;;45.33;38.88;;;;;;;;;;10049460;28;20049;-72
2023/11/14 07:54:30;;;;;;;51.53;42.83;;;;;;;;;;10046425;28;20049;-71
2023/11/14 07:59:22;;;;;;;47.80;38.10;;;;;;;;;;10050521;28;20080;-74
2023/11/14 08:04:15;;;;;;;49.95;35.85;;;;;;;;;;10055570;28;20075;-68
2023/11/14 08:09:07;;;;;;;45.38;37.00;;;;;;;;;;10055743;28;20544;-69
2023/11/14 08:13:59;;;;;;;49.53;34.92;;;;;;;;;;10046406;28;20072;-69
2023/11/14 08:18:51;;;;;;;50.92;41.47;;;;;;;;;;10062934;28;20041;-69
2023/11/14 08:23:43;;;;;;;48.13;38.28;;;;;;;;;;10040384;28;20052;-69
2023/11/14 08:28:35;;;;;;;45.72;36.38;;;;;;;;;;10061496;28;20060;-69
2023/11/14 08:33:26;;;;;;;43.38;33.25;;;;;;;;;;10039544;28;20472;-69
2023/11/14 08:38:18;;;;;;;48.67;35.97;;;;;;;;;;10050063;28;20088;-68
2023/11/14 08:43:12;;;;;;;47.78;38.03;;;;;;;;;;10011890;28;20042;-69
2023/11/14 08:48:04;;;;;;;46.75;36.78;;;;;;;;;;10045574;28;20087;-69
2023/11/14 08:52:56;;;;;;;62.95;43.22;;;;;;;;;;10048432;28;20129;-68
2023/11/14 08:57:48;;;;;;;51.47;41.33;;;;;;;;;;10061952;28;20056;-69
2023/11/14 09:02:40;;;;;;;50.90;42.72;;;;;;;;;;10070320;28;20058;-69
2023/11/14 09:07:32;;;;;;;62.35;49.42;;;;;;;;;;10070450;28;20049;-69
2023/11/14 09:12:24;;;;;;;76.85;57.53;;;;;;;;;;10070250;28;20468;-69
2023/11/14 09:17:16;;;;;;;69.38;56.85;;;;;;;;;;10061983;28;20399;-69
2023/11/14 09:22:08;;;;;;;73.80;58.88;;;;;;;;;;10048891;28;20042;-69
2023/11/14 09:27:00;;;;;;;67.90;58.30;;;;;;;;;;10046869;28;20065;-69
2023/11/14 09:31:53;;;;;;;67.93;57.75;;;;;;;;;;10051309;28;20124;-68
2023/11/14 09:36:45;;;;;;;67.72;57.30;;;;;;;;;;10054927;28;20046;-69
2023/11/14 09:41:37;;;;;;;57.28;50.75;;;;;;;;;;10056500;28;20029;-69
2023/11/14 09:46:32;;;;;;;69.47;58.08;;;;;;;;;;10061776;28;20042;-69
2023/11/14 09:51:25;;;;;;;63.95;51.70;;;;;;;;;;10065836;28;20107;-69
2023/11/14 09:56:18;;;;;;;64.82;55.35;;;;;;;;;;10031859;28;20129;-69
2023/11/14 10:01:11;;;;;;;63.55;52.28;;;;;;;;;;10032440;28;20617;-70
2023/11/14 10:06:03;;;;;;;70.28;54.22;;;;;;;;;;10025373;28;20412;-69
2023/11/14 10:11:06;;;;;;;78.53;51.65;;;;;;;;;;10024860;28;20092;-69
2023/11/14 10:16:19;;;;;;;64.13;51.97;;;;;;;;;;10031836;28;20095;-69
2023/11/14 10:21:31;;;;;;;59.70;47.45;;;;;;;;;;10014017;28;20125;-69
2023/11/14 10:26:26;;;;;;;63.92;49.67;;;;;;;;;;10024233;28;20077;-69
2023/11/14 10:31:36;;;;;;;58.75;50.30;;;;;;;;;;10012682;28;20472;-69
2023/11/14 10:36:28;;;;;;;66.53;54.78;;;;;;;;;;10039495;28;20038;-69
2023/11/14 10:41:23;;;;;;;69.68;56.67;;;;;;;;;;10045097;28;20143;-68
2023/11/14 10:46:15;;;;;;;65.40;49.70;;;;;;;;;;10027547;28;20100;-69
2023/11/14 10:51:08;;;;;;;57.50;45.28;;;;;;;;;;10034431;28;20100;-69
2023/11/14 10:56:02;;;;;;;52.78;42.97;;;;;;;;;;10042086;28;20042;-69
2023/11/14 11:00:57;;;;;;;56.50;46.80;;;;;;;;;;10031856;28;20053;-69
2023/11/14 11:05:49;;;;;;;62.60;49.92;;;;;;;;;;10033776;28;20041;-70
2023/11/14 11:10:42;;;;;;;51.53;41.45;;;;;;;;;;10030020;28;20042;-69
2023/11/14 11:15:45;;;;;;;55.20;44.60;;;;;;;;;;10034780;28;20073;-69
2023/11/14 11:20:37;;;;;;;62.00;47.05;;;;;;;;;;10033590;28;20437;-69
2023/11/14 11:25:29;;;;;;;60.08;47.40;;;;;;;;;;10032249;28;20034;-69
2023/11/14 11:30:22;;;;;;;58.28;48.25;;;;;;;;;;10020593;28;20050;-69
2023/11/14 11:35:18;;;;;;;57.95;46.88;;;;;;;;;;10024480;28;20053;-70
2023/11/14 11:40:13;;;;;;;55.63;45.33;;;;;;;;;;10034742;28;20058;-69
2023/11/14 11:45:07;;;;;;;46.42;38.90;;;;;;;;;;10024594;28;20304;-69
2023/11/14 11:49:59;;;;;;;49.20;39.58;;;;;;;;;;10022614;28;20049;-70
2023/11/14 11:55:14;;;;;;;46.75;39.08;;;;;;;;;;10022674;28;20121;-69
2023/11/14 12:00:09;;;;;;;51.70;41.65;;;;;;;;;;10025601;28;20053;-70
2023/11/14 12:05:02;;;;;;;62.60;42.05;;;;;;;;;;10026102;28;20496;-68
2023/11/14 12:09:56;;;;;;;49.85;40.58;;;;;;;;;;10027519;28;20042;-70
2023/11/14 12:14:48;;;;;;;52.13;37.72;;;;;;;;;;10026800;28;20053;-70
2023/11/14 12:19:40;;;;;;;51.00;42.70;;;;;;;;;;10043793;28;20420;-69
2023/11/14 12:24:33;;;;;;;53.17;38.50;;;;;;;;;;10025743;28;20038;-68
2023/11/14 12:29:25;;;;;;;42.42;34.05;;;;;;;;;;10015060;28;20041;-69
2023/11/14 12:34:27;;;;;;;45.88;33.65;;;;;;;;;;10033547;28;20049;-69
2023/11/14 12:39:19;;;;;;;50.35;34.20;;;;;;;;;;10032464;28;20068;-70
2023/11/14 12:44:11;;;;;;;44.08;33.95;;;;;;;;;;10031816;28;20038;-70
2023/11/14 12:49:17;;;;;;;44.92;34.80;;;;;;;;;;10031165;28;20060;-69
2023/11/14 12:54:11;;;;;;;50.08;37.53;;;;;;;;;;10033391;28;20085;-70
2023/11/14 12:59:05;;;;;;;43.15;36.60;;;;;;;;;;10031739;28;20780;-70
2023/11/14 13:03:57;;;;;;;42.97;36.17;;;;;;;;;;10028621;28;20109;-69
2023/11/14 13:08:48;;;;;;;45.40;36.08;;;;;;;;;;10032332;28;20038;-70
2023/11/14 13:13:42;;;;;;;35.75;31.90;;;;;;;;;;10034225;28;20057;-69
2023/11/14 13:18:33;;;;;;;39.78;31.75;;;;;;;;;;10028373;28;20919;-70
2023/11/14 13:23:25;;;;;;;38.33;29.15;;;;;;;;;;10038438;28;20042;-69
2023/11/14 13:28:17;;;;;;;35.13;28.33;;;;;;;;;;10035985;28;20042;-70
2023/11/14 13:33:11;;;;;;;31.20;25.85;;;;;;;;;;10029108;28;20041;-69
2023/11/14 13:38:03;;;;;;;33.40;29.45;;;;;;;;;;10034371;28;20045;-69
2023/11/14 13:42:55;;;;;;;33.15;29.05;;;;;;;;;;10028475;28;20054;-69
2023/11/14 13:47:49;;;;;;;26.25;23.45;;;;;;;;;;10031012;28;20041;-69
2023/11/14 13:52:42;;;;;;;27.02;24.02;;;;;;;;;;10027403;28;20054;-69
2023/11/14 13:57:34;;;;;;;29.73;25.10;;;;;;;;;;10030896;28;20089;-69
2023/11/14 14:02:29;;;;;;;33.30;25.45;;;;;;;;;;10031148;28;20038;-69
2023/11/14 14:07:22;;;;;;;34.00;23.80;;;;;;;;;;10038674;28;20049;-69
2023/11/14 14:12:14;;;;;;;28.52;24.00;;;;;;;;;;10033349;28;20156;-69
2023/11/14 14:17:08;;;;;;;32.40;24.90;;;;;;;;;;10024093;28;20034;-69
2023/11/14 14:22:02;;;;;;;29.38;25.05;;;;;;;;;;10052987;28;20044;-69
2023/11/14 14:26:54;;;;;;;31.90;24.33;;;;;;;;;;10042645;28;20041;-68
2023/11/14 14:31:46;;;;;;;31.48;25.40;;;;;;;;;;10044410;28;20053;-69
2023/11/14 14:36:38;;;;;;;32.25;25.90;;;;;;;;;;10047561;28;20042;-69
2023/11/14 14:41:30;;;;;;;34.10;24.85;;;;;;;;;;10035750;28;20054;-69
2023/11/14 14:46:23;;;;;;;31.30;24.83;;;;;;;;;;10042537;28;20049;-69
2023/11/14 14:51:15;;;;;;;30.48;25.50;;;;;;;;;;10044946;28;20060;-68
2023/11/14 14:56:07;;;;;;;26.33;21.60;;;;;;;;;;10034477;28;20108;-69
2023/11/14 15:00:59;;;;;;;33.47;25.75;;;;;;;;;;10027603;28;20064;-69
2023/11/14 15:05:51;;;;;;;27.65;23.67;;;;;;;;;;10027850;28;20400;-68
2023/11/14 15:10:44;;;;;;;30.73;25.23;;;;;;;;;;10047384;28;20045;-69
2023/11/14 15:15:37;;;;;;;31.13;26.52;;;;;;;;;;10042783;28;20389;-69
2023/11/14 15:20:29;;;;;;;34.50;28.48;;;;;;;;;;10036476;28;20380;-69
2023/11/14 15:25:22;;;;;;;35.88;30.83;;;;;;;;;;10043200;28;20125;-69
2023/11/14 15:30:14;;;;;;;34.25;29.83;;;;;;;;;;10038074;28;20042;-69
2023/11/14 15:35:07;;;;;;;30.67;26.83;;;;;;;;;;10042245;28;20046;-69
2023/11/14 15:40:00;;;;;;;34.42;28.98;;;;;;;;;;10052825;28;20057;-68
2023/11/14 15:44:52;;;;;;;39.63;30.83;;;;;;;;;;10046059;28;20053;-69
2023/11/14 15:49:43;;;;;;;37.67;30.02;;;;;;;;;;10031433;28;20493;-69
2023/11/14 15:54:37;;;;;;;36.40;30.67;;;;;;;;;;10046700;28;20054;-69
2023/11/14 15:59:29;;;;;;;52.95;38.55;;;;;;;;;;10034464;28;20041;-70
2023/11/14 16:04:21;;;;;;;56.60;44.35;;;;;;;;;;10031152;28;20043;-69
2023/11/14 16:09:13;;;;;;;43.53;37.88;;;;;;;;;;10032687;28;20042;-70
2023/11/14 16:14:06;;;;;;;48.38;37.58;;;;;;;;;;10036259;28;20140;-69
2023/11/14 16:18:58;;;;;;;42.22;36.28;;;;;;;;;;10030518;28;20100;-69
2023/11/14 16:23:50;;;;;;;48.25;41.13;;;;;;;;;;10052839;28;20119;-69
2023/11/14 16:28:42;;;;;;;60.65;37.38;;;;;;;;;;10039540;28;20440;-69
2023/11/14 16:33:34;;;;;;;44.42;38.65;;;;;;;;;;10035974;28;20050;-69
2023/11/14 16:38:26;;;;;;;59.95;46.60;;;;;;;;;;10036657;28;20098;-69
2023/11/14 16:43:18;;;;;;;70.72;55.55;;;;;;;;;;10024164;28;20124;-69
2023/11/14 16:48:10;;;;;;;59.47;50.22;;;;;;;;;;10028646;28;20560;-68
2023/11/14 16:53:03;;;;;;;63.13;50.88;;;;;;;;;;10032830;28;20487;-69
2023/11/14 16:57:55;;;;;;;59.40;50.83;;;;;;;;;;10047852;28;20045;-69
2023/11/14 17:02:48;;;;;;;57.28;49.50;;;;;;;;;;10036835;28;20493;-69
2023/11/14 17:07:40;;;;;;;62.58;51.78;;;;;;;;;;10034051;28;20143;-69
2023/11/14 17:12:33;;;;;;;63.28;54.47;;;;;;;;;;10035850;28;20134;-68
2023/11/14 17:17:25;;;;;;;66.22;55.92;;;;;;;;;;10056265;28;20038;-69
2023/11/14 17:22:19;;;;;;;67.35;55.85;;;;;;;;;;10053169;28;20464;-69
2023/11/14 17:27:12;;;;;;;65.90;57.03;;;;;;;;;;10057634;28;20041;-69
2023/11/14 17:32:05;;;;;;;62.90;51.47;;;;;;;;;;10055017;28;20107;-69
2023/11/14 17:36:56;;;;;;;60.85;51.20;;;;;;;;;;10036797;28;20129;-70
2023/11/14 17:41:49;;;;;;;63.40;56.22;;;;;;;;;;10030647;28;20092;-70
2023/11/14 17:46:42;;;;;;;63.67;56.80;;;;;;;;;;10032445;28;20041;-70
2023/11/14 17:51:34;;;;;;;66.47;56.03;;;;;;;;;;10052642;28;20064;-68
2023/11/14 17:56:31;;;;;;;74.22;58.65;;;;;;;;;;10051240;28;20050;-69
2023/11/14 18:01:24;;;;;;;69.80;55.42;;;;;;;;;;10038096;28;20046;-69
2023/11/14 18:06:16;;;;;;;63.22;56.08;;;;;;;;;;10063456;28;20432;-70
2023/11/14 18:11:08;;;;;;;74.28;62.92;;;;;;;;;;10052012;28;20049;-69
2023/11/14 18:16:00;;;;;;;79.60;63.50;;;;;;;;;;10047542;28;20052;-69
2023/11/14 18:20:51;;;;;;;87.63;74.85;;;;;;;;;;10051644;28;20046;-70
2023/11/14 18:25:43;;;;;;;82.00;69.32;;;;;;;;;;10049258;28;20519;-69
2023/11/14 18:30:37;;;;;;;82.28;65.75;;;;;;;;;;10042664;28;20381;-70
2023/11/14 18:35:29;;;;;;;80.15;64.72;;;;;;;;;;10041247;28;20457;-70
2023/11/14 18:40:21;;;;;;;114.38;92.45;;;;;;;;;;10028875;28;20045;-69
2023/11/14 18:45:12;;;;;;;79.10;64.47;;;;;;;;;;10015699;28;20463;-70
2023/11/14 18:50:08;;;;;;;72.20;64.07;;;;;;;;;;10028575;28;20057;-69
2023/11/14 18:55:00;;;;;;;81.05;64.20;;;;;;;;;;10026896;28;20099;-70
2023/11/14 18:59:53;;;;;;;75.57;67.20;;;;;;;;;;10029460;28;20046;-71
2023/11/14 19:04:45;;;;;;;81.15;69.63;;;;;;;;;;10013875;28;20540;-71
2023/11/14 19:09:37;;;;;;;82.43;70.07;;;;;;;;;;10021581;28;20042;-72
2023/11/14 19:14:30;;;;;;;83.95;70.00;;;;;;;;;;10004227;28;20108;-70
2023/11/14 19:19:24;;;;;;;80.05;67.80;;;;;;;;;;10025065;28;20377;-71
2023/11/14 19:24:18;;;;;;;77.75;69.10;;;;;;;;;;10019817;28;20048;-70
2023/11/14 19:29:11;;;;;;;79.10;66.78;;;;;;;;;;10024722;28;20476;-71
2023/11/14 19:34:03;;;;;;;99.80;74.18;;;;;;;;;;10029768;28;20133;-72
2023/11/14 19:38:55;;;;;;;82.35;72.05;;;;;;;;;;10033038;28;20049;-70
2023/11/14 19:43:47;;;;;;;82.80;68.13;;;;;;;;;;10021063;28;20045;-70
2023/11/14 19:48:39;;;;;;;75.97;63.78;;;;;;;;;;9985695;28;1255851;-70
2023/11/14 19:53:30;;;;;;;68.25;59.10;;;;;;;;;;10024143;28;20116;-70
2023/11/14 19:58:22;;;;;;;85.18;75.88;;;;;;;;;;10023377;28;20056;-70
2023/11/14 20:03:14;;;;;;;70.43;61.03;;;;;;;;;;10021081;28;20339;-70
2023/11/14 20:08:06;;;;;;;75.35;61.92;;;;;;;;;;10019616;28;20495;-70
2023/11/14 20:12:58;;;;;;;73.40;58.22;;;;;;;;;;10022716;28;20046;-70
2023/11/14 20:17:50;;;;;;;70.30;58.55;;;;;;;;;;10023380;28;20111;-70
2023/11/14 20:22:42;;;;;;;72.28;63.10;;;;;;;;;;10022801;28;20492;-70
2023/11/14 20:27:34;;;;;;;77.75;62.28;;;;;;;;;;10024165;28;20054;-70
2023/11/14 20:32:29;;;;;;;79.32;66.30;;;;;;;;;;10023891;28;20049;-70
2023/11/14 20:37:21;;;;;;;79.00;57.25;;;;;;;;;;10025668;28;20033;-70
2023/11/14 20:42:13;;;;;;;84.47;67.05;;;;;;;;;;10027424;28;20046;-71
2023/11/14 20:47:08;;;;;;;72.63;58.10;;;;;;;;;;10047045;28;20542;-71
2023/11/14 20:52:00;;;;;;;67.80;58.25;;;;;;;;;;10033035;28;20085;-70
2023/11/14 20:56:52;;;;;;;76.68;61.78;;;;;;;;;;10041812;28;20034;-70
2023/11/14 21:01:44;;;;;;;67.80;57.38;;;;;;;;;;10033893;28;20664;-71
2023/11/14 21:06:39;;;;;;;67.45;58.05;;;;;;;;;;10042457;28;20053;-71
2023/11/14 21:11:31;;;;;;;74.00;57.50;;;;;;;;;;10031839;28;20061;-71
2023/11/14 21:16:23;;;;;;;67.38;57.85;;;;;;;;;;10032066;28;20476;-71
2023/11/14 21:21:16;;;;;;;76.18;59.63;;;;;;;;;;10036553;28;20431;-71
2023/11/14 21:26:08;;;;;;;73.05;60.15;;;;;;;;;;10021667;28;20065;-71
2023/11/14 21:31:06;;;;;;;71.40;61.58;;;;;;;;;;10038169;28;20045;-70
2023/11/14 21:35:59;;;;;;;65.15;57.10;;;;;;;;;;10047628;28;20100;-71
2023/11/14 21:40:52;;;;;;;68.78;59.53;;;;;;;;;;10045052;28;20417;-70
2023/11/14 21:45:44;;;;;;;67.72;57.97;;;;;;;;;;10040569;28;20046;-70
2023/11/14 21:50:36;;;;;;;66.97;58.35;;;;;;;;;;10036147;28;20476;-71
2023/11/14 21:55:27;;;;;;;63.58;56.60;;;;;;;;;;10044609;28;20042;-71
2023/11/14 22:00:19;;;;;;;66.93;56.78;;;;;;;;;;10036699;28;20038;-71
2023/11/14 22:05:11;;;;;;;64.65;54.67;;;;;;;;;;10033982;28;20034;-71
2023/11/14 22:10:03;;;;;;;75.53;63.35;;;;;;;;;;10035814;28;20128;-71
2023/11/14 22:14:55;;;;;;;70.63;61.25;;;;;;;;;;10052149;28;20103;-71
2023/11/14 22:19:47;;;;;;;73.38;61.25;;;;;;;;;;10047315;28;20045;-71
2023/11/14 22:24:39;;;;;;;71.85;60.15;;;;;;;;;;10045215;28;20049;-71
2023/11/14 22:29:31;;;;;;;75.00;61.90;;;;;;;;;;10042191;28;20040;-71
2023/11/14 22:34:23;;;;;;;80.80;59.40;;;;;;;;;;10029109;28;20071;-71
2023/11/14 22:39:15;;;;;;;74.88;64.70;;;;;;;;;;10029559;28;20046;-71
2023/11/14 22:44:07;;;;;;;72.88;63.80;;;;;;;;;;10025705;28;20496;-71
2023/11/14 22:48:59;;;;;;;65.05;56.83;;;;;;;;;;10015018;28;20054;-71
2023/11/14 22:53:50;;;;;;;72.10;62.17;;;;;;;;;;10027368;28;20050;-71
2023/11/14 22:58:42;;;;;;;73.80;60.35;;;;;;;;;;10028317;28;20073;-71
2023/11/14 23:03:35;;;;;;;69.00;59.97;;;;;;;;;;10027274;28;20103;-71
2023/11/14 23:08:27;;;;;;;68.43;58.88;;;;;;;;;;10026525;28;20413;-72
2023/11/14 23:13:19;;;;;;;70.03;57.72;;;;;;;;;;10026582;28;20425;-71
2023/11/14 23:18:11;;;;;;;91.38;59.42;;;;;;;;;;10028300;28;20118;-71
2023/11/14 23:23:03;;;;;;;69.10;57.10;;;;;;;;;;10026251;28;20048;-71
2023/11/14 23:27:58;;;;;;;65.70;57.38;;;;;;;;;;10023871;28;20046;-71
2023/11/14 23:32:50;;;;;;;69.13;57.80;;;;;;;;;;10026068;28;20473;-71
2023/11/14 23:37:42;;;;;;;72.05;59.63;;;;;;;;;;10027676;28;20081;-71
2023/11/14 23:42:34;;;;;;;77.47;60.53;;;;;;;;;;10025174;28;20196;-72
2023/11/14 23:47:26;;;;;;;72.57;61.65;;;;;;;;;;10025868;28;20046;-71
2023/11/14 23:52:18;;;;;;;83.05;61.53;;;;;;;;;;10025986;28;20053;-72
2023/11/14 23:57:10;;;;;;;78.28;62.72;;;;;;;;;;10026219;28;20088;-72
